Terminal Aerodrome Forecast
Issued by NWS

Home | Current Version | Previous Version | Graphics & Text | Print | Product List | Glossary On
Versions: 1 2 3 4 5 6 7 8 9 10 11 12 13 14 15 16 17 18 19 20 21 22 23
620
FTUS41 KCLE 272341
TAFFDY
TAF
KFDY 272341Z 2800/2824 VRB04KT P6SM -RA SCT050 OVC100
     FM280300 05005KT 3SM -RA BR BKN015 OVC025
      TEMPO 2809/2813 1SM -RA BR OVC006
     FM281500 02010KT P6SM SCT008 OVC015=

USA.gov is the U.S. government's official web portal to all federal, state and local government web resources and services.